createdAt,value
2019-05-15T00:00:40.140Z,2.17
2019-05-15T00:03:09.554Z,2.02
2019-05-15T00:05:39.346Z,2.00
2019-05-15T00:08:09.436Z,2.10
2019-05-15T00:10:39.300Z,1.95
2019-05-15T00:13:09.402Z,1.80
2019-05-15T00:15:40.202Z,1.90
2019-05-15T00:18:09.641Z,1.92
2019-05-15T00:20:39.369Z,1.85
2019-05-15T00:23:09.051Z,1.90
2019-05-15T00:28:09.511Z,1.85
2019-05-15T00:30:38.781Z,1.87
2019-05-15T00:33:09.025Z,1.80
2019-05-15T00:35:39.365Z,1.80
2019-05-15T00:38:09.504Z,1.70
2019-05-15T00:40:39.653Z,2.10
2019-05-15T00:43:09.162Z,1.52
2019-05-15T00:45:38.662Z,2.00
2019-05-15T00:48:08.846Z,1.90
2019-05-15T00:50:39.565Z,1.90
2019-05-15T00:53:09.390Z,2.20
2019-05-15T00:55:39.673Z,1.90
2019-05-15T00:58:08.995Z,2.15
2019-05-15T01:00:43.502Z,2.72
2019-05-15T01:03:13.098Z,2.40
2019-05-15T01:05:42.311Z,2.10
2019-05-15T01:08:10.971Z,2.50
2019-05-15T01:10:39.467Z,2.02
2019-05-15T01:13:08.766Z,2.40
2019-05-15T01:15:38.685Z,2.25
2019-05-15T01:18:09.307Z,2.20
2019-05-15T01:20:39.228Z,2.22
2019-05-15T01:23:09.003Z,2.40
2019-05-15T01:25:38.900Z,2.60
2019-05-15T01:28:09.556Z,2.30
2019-05-15T01:30:39.497Z,2.40
2019-05-15T01:33:08.798Z,2.10
2019-05-15T01:38:08.174Z,2.25
2019-05-15T01:40:38.563Z,1.87
2019-05-15T01:43:09.058Z,3.00
2019-05-15T01:45:39.530Z,2.00
2019-05-15T01:48:08.860Z,2.02
2019-05-15T01:50:38.850Z,2.10
2019-05-15T01:53:08.549Z,2.40
2019-05-15T01:55:39.447Z,2.05
2019-05-15T01:58:09.343Z,2.40
2019-05-15T02:00:39.176Z,2.02
2019-05-15T02:03:09.670Z,2.17
2019-05-15T02:05:39.399Z,2.05
2019-05-15T02:08:08.926Z,2.08
2019-05-15T02:10:39.235Z,2.22
2019-05-15T02:13:08.899Z,2.10
2019-05-15T02:15:39.488Z,1.98
2019-05-15T02:18:08.932Z,1.92
2019-05-15T02:20:38.828Z,2.10
2019-05-15T02:23:11.652Z,2.08
2019-05-15T02:25:39.538Z,2.05
2019-05-15T02:28:09.345Z,2.40
2019-05-15T02:30:40.364Z,2.00
2019-05-15T02:33:10.491Z,2.30
2019-05-15T02:35:40.203Z,2.50
2019-05-15T02:38:10.310Z,2.40
2019-05-15T02:40:40.841Z,2.00
2019-05-15T02:43:10.671Z,2.00
2019-05-15T02:45:41.812Z,2.37
2019-05-15T02:48:10.753Z,2.87
2019-05-15T02:50:39.551Z,2.83
2019-05-15T02:53:09.999Z,2.58
2019-05-15T02:55:40.210Z,2.33
2019-05-15T02:58:10.427Z,2.50
2019-05-15T03:00:47.733Z,2.35
2019-05-15T03:03:10.872Z,2.52
2019-05-15T03:08:09.807Z,2.70
2019-05-15T03:10:40.604Z,2.50
2019-05-15T03:13:10.383Z,3.10
2019-05-15T03:15:40.551Z,3.15
2019-05-15T03:18:10.273Z,2.92
2019-05-15T03:20:40.186Z,3.10
2019-05-15T03:23:10.036Z,3.67
2019-05-15T03:25:40.691Z,2.83
2019-05-15T03:28:10.854Z,3.60
2019-05-15T03:31:12.091Z,3.45
2019-05-15T03:33:18.310Z,3.10
2019-05-15T03:35:44.050Z,3.42
2019-05-15T03:38:12.821Z,3.15
2019-05-15T03:40:41.387Z,3.72
2019-05-15T03:43:10.213Z,2.65
2019-05-15T03:45:40.535Z,3.20
2019-05-15T03:48:09.904Z,3.05
2019-05-15T03:53:10.406Z,3.75
2019-05-15T03:55:40.340Z,2.90
2019-05-15T03:58:10.502Z,2.83
2019-05-15T04:00:40.004Z,3.17
2019-05-15T04:03:10.758Z,3.25
2019-05-15T04:05:40.239Z,3.40
2019-05-15T04:08:10.927Z,3.45
2019-05-15T04:10:40.230Z,3.22
2019-05-15T04:13:09.959Z,3.20
2019-05-15T04:15:39.938Z,3.30
2019-05-15T04:18:09.783Z,3.58
2019-05-15T04:20:40.404Z,3.65
2019-05-15T04:23:10.806Z,3.60
2019-05-15T04:25:40.834Z,4.22
2019-05-15T04:28:11.995Z,3.83
2019-05-15T04:30:41.147Z,3.75
2019-05-15T04:33:10.109Z,3.77
2019-05-15T04:35:40.412Z,4.12
2019-05-15T04:38:09.946Z,4.10
2019-05-15T04:40:40.067Z,3.92
2019-05-15T04:43:10.780Z,4.03
2019-05-15T04:45:40.246Z,3.85
2019-05-15T04:48:10.085Z,3.83
2019-05-15T04:50:40.331Z,3.52
2019-05-15T04:53:10.913Z,3.62
2019-05-15T04:55:40.964Z,3.80
2019-05-15T04:58:10.699Z,4.20
2019-05-15T05:00:50.854Z,3.80
2019-05-15T05:03:20.706Z,4.75
2019-05-15T05:05:50.586Z,4.03
2019-05-15T05:08:20.671Z,4.58
2019-05-15T05:10:50.234Z,4.87
2019-05-15T05:13:19.885Z,4.12
2019-05-15T05:15:50.288Z,4.50
2019-05-15T05:18:20.089Z,4.58
2019-05-15T05:20:49.240Z,4.50
2019-05-15T05:23:19.254Z,4.42
2019-05-15T05:25:49.334Z,4.65
2019-05-15T05:28:19.321Z,4.70
2019-05-15T05:30:48.838Z,4.25
2019-05-15T05:33:18.591Z,3.85
2019-05-15T05:35:48.810Z,4.50
2019-05-15T05:38:19.156Z,4.45
2019-05-15T05:40:49.724Z,4.05
2019-05-15T05:43:19.816Z,4.20
2019-05-15T05:45:49.461Z,4.50
2019-05-15T05:48:19.325Z,5.30
2019-05-15T05:50:49.941Z,4.53
2019-05-15T05:53:21.238Z,4.20
2019-05-15T05:55:53.218Z,3.83
2019-05-15T05:58:21.043Z,4.15
2019-05-15T06:00:49.920Z,4.12
2019-05-15T06:05:49.589Z,4.47
2019-05-15T06:08:19.819Z,4.03
2019-05-15T06:10:49.856Z,3.58
2019-05-15T06:13:19.315Z,3.92
2019-05-15T06:18:19.752Z,3.75
2019-05-15T06:20:49.625Z,3.55
2019-05-15T06:23:24.808Z,3.65
2019-05-15T06:25:59.452Z,3.10
2019-05-15T06:28:29.099Z,3.40
2019-05-15T06:31:00.763Z,2.77
2019-05-15T06:33:29.271Z,3.02
2019-05-15T06:35:59.264Z,2.55
2019-05-15T06:38:30.894Z,2.92
2019-05-15T06:40:59.372Z,2.95
2019-05-15T06:43:28.127Z,2.90
2019-05-15T06:45:58.462Z,2.20
2019-05-15T06:48:28.857Z,2.30
2019-05-15T06:50:58.259Z,2.17
2019-05-15T06:53:29.033Z,1.70
2019-05-15T06:55:58.429Z,1.50
2019-05-15T06:58:28.970Z,1.87
2019-05-15T07:00:59.246Z,1.70
2019-05-15T07:03:29.361Z,1.53
2019-05-15T07:06:00.021Z,1.70
2019-05-15T07:08:29.335Z,1.45
2019-05-15T07:15:54.911Z,1.60
2019-05-15T07:18:23.689Z,1.82
2019-05-15T07:20:52.279Z,1.67
2019-05-15T07:23:21.047Z,1.50
2019-05-15T07:25:50.181Z,1.60
2019-05-15T07:28:19.614Z,1.50
2019-05-15T07:30:50.385Z,1.80
2019-05-15T07:33:35.303Z,1.77
2019-05-15T07:35:50.391Z,1.70
2019-05-15T07:38:19.345Z,1.93
2019-05-15T07:40:57.190Z,1.53
2019-05-15T07:43:19.020Z,1.75
2019-05-15T07:45:54.230Z,1.47
2019-05-15T07:48:18.963Z,1.65
2019-05-15T07:50:49.646Z,1.80
2019-05-15T07:53:19.688Z,1.47
2019-05-15T07:55:50.674Z,1.82
2019-05-15T07:58:21.861Z,1.77
2019-05-15T08:00:50.791Z,1.60
2019-05-15T08:05:58.664Z,1.92
2019-05-15T08:08:18.610Z,1.80
2019-05-15T08:10:48.977Z,1.90
2019-05-15T08:13:18.763Z,2.00
2019-05-15T08:15:48.668Z,1.70
2019-05-15T08:18:19.003Z,1.98
2019-05-15T08:20:48.968Z,2.10
2019-05-15T08:23:19.130Z,1.70
2019-05-15T08:25:48.863Z,2.10
2019-05-15T08:28:18.987Z,1.70
2019-05-15T08:30:49.422Z,2.03
2019-05-15T08:33:19.082Z,2.10
2019-05-15T08:35:51.655Z,2.00
2019-05-15T08:38:18.748Z,2.13
2019-05-15T08:40:49.038Z,2.27
2019-05-15T08:43:18.839Z,1.90
2019-05-15T08:45:49.513Z,2.00
2019-05-15T08:48:19.055Z,2.00
2019-05-15T08:50:48.686Z,1.70
2019-05-15T08:53:19.466Z,1.90
2019-05-15T08:55:49.270Z,1.80
2019-05-15T08:58:20.394Z,2.20
2019-05-15T09:00:52.433Z,2.03
2019-05-15T09:03:19.353Z,2.10
2019-05-15T09:05:48.607Z,2.08
2019-05-15T09:08:19.527Z,2.77
2019-05-15T09:10:50.146Z,1.80
2019-05-15T09:13:19.190Z,1.90
2019-05-15T09:15:49.129Z,2.30
2019-05-15T09:18:20.161Z,2.00
2019-05-15T09:20:49.333Z,2.23
2019-05-15T09:23:19.612Z,1.70
2019-05-15T09:25:49.589Z,1.80
2019-05-15T09:28:19.400Z,1.67
2019-05-15T09:30:48.875Z,1.53
2019-05-15T09:33:20.024Z,2.47
2019-05-15T09:35:49.026Z,1.57
2019-05-15T09:38:18.713Z,1.80
2019-05-15T09:40:50.469Z,1.40
2019-05-15T09:43:18.518Z,1.40
2019-05-15T09:48:19.768Z,1.27
2019-05-15T09:50:49.232Z,1.60
2019-05-15T09:53:19.137Z,1.37
2019-05-15T09:55:49.426Z,1.27
2019-05-15T09:58:20.639Z,1.33
2019-05-15T10:00:52.718Z,1.40
2019-05-15T10:03:20.613Z,1.77
2019-05-15T10:08:20.972Z,1.40
2019-05-15T10:10:48.806Z,1.60
2019-05-15T10:13:18.869Z,1.70
2019-05-15T10:15:50.818Z,1.73
2019-05-15T10:18:19.286Z,1.20
2019-05-15T10:20:48.817Z,1.53
2019-05-15T10:23:19.523Z,1.60
2019-05-15T10:25:48.679Z,1.50
2019-05-15T10:28:19.338Z,1.57
2019-05-15T10:30:49.593Z,1.50
2019-05-15T10:33:19.785Z,1.40
2019-05-15T10:35:49.443Z,1.43
2019-05-15T10:38:19.276Z,1.80
2019-05-15T10:41:00.300Z,1.33
2019-05-15T10:43:20.596Z,1.70
2019-05-15T10:45:50.368Z,1.50
2019-05-15T10:48:19.445Z,1.40
2019-05-15T10:50:48.306Z,1.40
2019-05-15T10:53:18.879Z,1.47
2019-05-15T10:55:49.606Z,1.30
2019-05-15T10:58:21.894Z,1.20
2019-05-15T11:00:49.703Z,1.10
2019-05-15T11:03:19.881Z,1.60
2019-05-15T11:05:49.443Z,1.20
2019-05-15T11:08:19.040Z,1.40
2019-05-15T11:10:49.317Z,1.30
2019-05-15T11:13:19.125Z,1.57
2019-05-15T11:15:49.157Z,1.50
2019-05-15T11:18:18.519Z,1.30
2019-05-15T11:20:48.754Z,1.27
2019-05-15T11:23:19.877Z,1.10
2019-05-15T11:25:48.960Z,1.10
2019-05-15T11:28:18.013Z,1.27
2019-05-15T11:33:18.520Z,1.20
2019-05-15T11:35:57.903Z,1.23
2019-05-15T11:38:19.451Z,1.27
2019-05-15T11:40:47.772Z,1.50
2019-05-15T11:45:44.508Z,1.30
2019-05-15T11:48:13.374Z,1.30
2019-05-15T11:50:42.296Z,1.10
2019-05-15T11:53:11.180Z,1.27
2019-05-15T11:55:40.042Z,1.23
2019-05-15T11:58:09.519Z,1.20
2019-05-15T12:00:38.608Z,1.10
2019-05-15T12:03:08.994Z,1.10
2019-05-15T12:05:38.801Z,1.03
2019-05-15T12:08:08.692Z,1.20
2019-05-15T12:10:38.934Z,1.10
2019-05-15T12:13:09.748Z,1.00
2019-05-15T12:15:39.056Z,1.23
2019-05-15T12:18:08.774Z,1.23
2019-05-15T12:20:39.024Z,1.13
2019-05-15T12:23:09.007Z,1.27
2019-05-15T12:25:39.592Z,1.30
2019-05-15T12:28:09.674Z,1.30
2019-05-15T12:30:40.317Z,1.37
2019-05-15T12:33:09.955Z,1.23
2019-05-15T12:35:40.043Z,1.30
2019-05-15T12:38:10.291Z,1.10
2019-05-15T13:00:43.975Z,1.30
2019-05-15T13:03:12.825Z,1.40
2019-05-15T13:08:09.360Z,1.10
2019-05-15T13:10:38.771Z,1.20
2019-05-15T13:13:09.644Z,1.20
2019-05-15T13:15:40.794Z,1.37
2019-05-15T13:18:13.801Z,1.40
2019-05-15T13:20:39.691Z,0.97
2019-05-15T13:25:39.469Z,1.20
2019-05-15T13:28:08.948Z,1.10
2019-05-15T13:30:41.324Z,1.83
2019-05-15T13:33:09.761Z,1.20
2019-05-15T13:35:39.327Z,1.40
2019-05-15T13:38:10.057Z,1.47
2019-05-15T13:40:42.180Z,1.30
2019-05-15T13:43:09.182Z,1.00
2019-05-15T13:45:38.651Z,1.30
2019-05-15T13:48:08.780Z,0.97
2019-05-15T13:50:40.532Z,1.00
2019-05-15T13:53:10.480Z,1.10
2019-05-15T13:55:42.292Z,1.30
2019-05-15T13:58:09.863Z,1.20
2019-05-15T14:00:39.406Z,1.20
2019-05-15T14:03:09.056Z,1.00
2019-05-15T14:05:38.873Z,1.10
2019-05-15T14:08:07.796Z,1.30
2019-05-15T14:10:38.679Z,1.40
2019-05-15T14:13:07.391Z,1.27
2019-05-15T14:15:38.302Z,1.30
2019-05-15T14:18:08.564Z,1.27
2019-05-15T14:20:38.648Z,1.30
2019-05-15T14:23:08.618Z,1.13
2019-05-15T14:25:38.872Z,1.60
2019-05-15T14:28:08.924Z,1.40
2019-05-15T14:30:38.013Z,1.70
2019-05-15T14:33:08.581Z,1.20
2019-05-15T14:35:37.938Z,1.60
2019-05-15T14:38:10.197Z,1.63
2019-05-15T14:40:37.518Z,1.60
2019-05-15T14:43:08.795Z,1.60
2019-05-15T14:45:38.804Z,1.50
2019-05-15T14:48:08.815Z,1.50
2019-05-15T14:50:38.440Z,1.93
2019-05-15T14:53:09.499Z,1.50
2019-05-15T14:55:44.001Z,1.50
2019-05-15T14:58:08.961Z,1.30
2019-05-15T15:00:41.628Z,1.50
2019-05-15T15:03:09.705Z,1.40
2019-05-15T15:05:39.075Z,1.70
2019-05-15T15:08:20.798Z,1.90
2019-05-15T15:10:38.744Z,1.40
2019-05-15T15:13:09.387Z,1.40
2019-05-15T15:15:38.218Z,1.37
2019-05-15T15:18:08.228Z,1.40
2019-05-15T15:20:37.979Z,1.77
2019-05-15T15:23:08.576Z,1.50
2019-05-15T15:25:39.763Z,1.73
2019-05-15T15:28:08.693Z,1.60
2019-05-15T15:30:38.394Z,1.60
2019-05-15T15:33:08.494Z,1.63
2019-05-15T15:35:38.335Z,1.63
2019-05-15T15:38:13.331Z,1.50
2019-05-15T15:40:38.903Z,1.33
2019-05-15T15:43:09.149Z,1.30
2019-05-15T15:45:39.249Z,4.67
2019-05-15T15:48:08.590Z,1.00
2019-05-15T15:50:38.305Z,1.27
2019-05-15T15:53:08.796Z,1.00
2019-05-15T15:55:38.808Z,1.10
2019-05-15T15:58:08.802Z,1.17
2019-05-15T16:00:38.728Z,1.33
2019-05-15T16:03:08.518Z,1.20
2019-05-15T16:05:38.525Z,1.33
2019-05-15T16:08:08.505Z,1.77
2019-05-15T16:10:40.465Z,2.07
2019-05-15T16:13:09.375Z,2.47
2019-05-15T16:15:38.826Z,2.47
2019-05-15T16:18:08.914Z,1.50
2019-05-15T16:20:39.491Z,1.70
2019-05-15T16:23:08.775Z,2.97
2019-05-15T16:25:38.497Z,2.00
2019-05-15T16:28:08.850Z,2.10
2019-05-15T16:30:50.473Z,5.60
2019-05-15T16:33:09.509Z,2.97
2019-05-15T16:35:38.895Z,1.70
2019-05-15T16:38:09.374Z,1.33
2019-05-15T16:40:38.592Z,2.17
2019-05-15T16:43:07.590Z,1.70
2019-05-15T16:45:38.810Z,2.00
2019-05-15T16:48:09.290Z,3.57
2019-05-15T16:50:38.127Z,1.00
2019-05-15T16:53:09.267Z,1.30
2019-05-15T16:55:38.173Z,1.20
2019-05-15T16:58:09.117Z,1.33
2019-05-15T17:00:38.473Z,1.00
2019-05-15T17:03:13.837Z,1.20
2019-05-15T17:05:38.691Z,1.17
2019-05-15T17:08:09.067Z,1.00
2019-05-15T17:10:38.857Z,1.37
2019-05-15T17:13:08.713Z,1.00
2019-05-15T17:15:38.447Z,1.50
2019-05-15T17:18:08.921Z,1.17
2019-05-15T17:20:38.067Z,0.93
2019-05-15T17:25:38.238Z,0.90
2019-05-15T17:28:08.927Z,1.10
2019-05-15T17:30:38.276Z,1.10
2019-05-15T17:33:07.466Z,1.07
2019-05-15T17:35:38.067Z,1.10
2019-05-15T17:38:06.982Z,0.90
2019-05-15T17:43:03.768Z,0.90
2019-05-15T17:45:33.167Z,1.10
2019-05-15T17:48:02.009Z,1.00
2019-05-15T17:53:00.167Z,1.00
2019-05-15T17:58:00.696Z,1.17
2019-05-15T18:00:28.607Z,0.90
2019-05-15T18:02:57.785Z,0.93
2019-05-15T18:07:58.158Z,0.90
2019-05-15T18:10:27.893Z,1.00
2019-05-15T18:12:58.372Z,1.00
2019-05-15T18:15:27.608Z,0.90
2019-05-15T18:17:58.941Z,1.10
2019-05-15T18:20:30.879Z,0.80
2019-05-15T18:22:59.676Z,0.80
2019-05-15T18:27:58.867Z,4.62
2019-05-15T18:30:28.155Z,2.70
2019-05-15T18:32:58.755Z,0.90
2019-05-15T18:35:34.067Z,0.90
2019-05-15T18:38:02.910Z,0.97
2019-05-15T18:42:59.585Z,1.80
2019-05-15T18:47:58.719Z,0.88
2019-05-15T18:50:28.451Z,0.90
2019-05-15T18:52:58.414Z,2.10
2019-05-15T18:55:27.594Z,0.90
2019-05-15T19:00:24.389Z,1.10
2019-05-15T19:02:53.443Z,0.80
2019-05-15T19:05:21.976Z,0.80
2019-05-15T19:07:50.550Z,0.90
2019-05-15T19:10:19.659Z,1.07
2019-05-15T19:12:48.544Z,1.20
2019-05-15T19:17:47.819Z,0.90
2019-05-15T19:20:19.007Z,1.17
2019-05-15T19:22:48.225Z,0.93
2019-05-15T19:25:17.929Z,2.30
2019-05-15T19:27:46.953Z,1.23
2019-05-15T19:32:44.005Z,0.90
2019-05-15T19:37:41.078Z,0.93
2019-05-15T19:42:38.598Z,1.00
2019-05-15T19:45:08.833Z,1.37
2019-05-15T19:47:38.806Z,1.30
2019-05-15T19:50:08.942Z,1.23
2019-05-15T19:52:38.255Z,1.30
2019-05-15T19:55:09.043Z,1.90
2019-05-15T19:57:39.159Z,1.47
2019-05-15T20:00:08.920Z,1.10
2019-05-15T20:02:38.316Z,1.10
2019-05-15T20:05:09.172Z,1.20
2019-05-15T20:07:39.329Z,1.10
2019-05-15T20:10:09.682Z,1.07
2019-05-15T20:12:39.358Z,1.07
2019-05-15T20:15:09.338Z,0.90
2019-05-15T20:17:38.959Z,1.17
2019-05-15T20:20:09.261Z,0.93
2019-05-15T20:22:40.231Z,1.00
2019-05-15T20:25:09.223Z,0.90
2019-05-15T20:27:39.057Z,0.93
2019-05-15T20:30:09.022Z,6.70
2019-05-15T20:32:38.574Z,2.63
2019-05-15T20:35:08.834Z,1.07
2019-05-15T20:37:39.021Z,0.90
2019-05-15T20:40:09.685Z,1.00
2019-05-15T20:42:38.932Z,0.90
2019-05-15T20:47:38.882Z,1.12
2019-05-15T20:50:09.733Z,1.20
2019-05-15T20:52:39.710Z,1.10
2019-05-15T20:55:09.454Z,1.35
2019-05-15T20:57:40.947Z,1.32
2019-05-15T21:00:11.214Z,1.00
2019-05-15T21:02:40.365Z,1.10
2019-05-15T21:10:08.606Z,1.02
2019-05-15T21:12:41.089Z,1.15
2019-05-15T21:15:09.769Z,1.10
2019-05-15T21:17:40.597Z,0.90
2019-05-15T21:20:10.154Z,2.47
2019-05-15T21:22:40.203Z,1.17
2019-05-15T21:25:11.244Z,1.40
2019-05-15T21:27:43.701Z,1.20
2019-05-15T21:30:14.481Z,1.50
2019-05-15T21:32:43.636Z,1.30
2019-05-15T21:35:12.578Z,1.07
2019-05-15T21:37:41.728Z,1.30
2019-05-15T21:40:10.475Z,0.90
2019-05-15T21:42:41.781Z,1.17
2019-05-15T21:45:14.663Z,1.07
2019-05-15T21:47:41.685Z,0.93
2019-05-15T21:52:39.383Z,1.00
2019-05-15T21:55:09.601Z,0.95
2019-05-15T21:57:40.410Z,1.17
2019-05-15T22:00:21.603Z,1.40
2019-05-15T22:02:50.981Z,1.05
2019-05-15T22:05:19.922Z,1.20
2019-05-15T22:10:19.227Z,1.15
2019-05-15T22:12:48.875Z,1.00
2019-05-15T22:15:19.058Z,1.10
2019-05-15T22:17:49.551Z,1.25
2019-05-15T22:20:19.227Z,1.20
2019-05-15T22:22:50.707Z,1.10
2019-05-15T22:25:19.419Z,0.90
2019-05-15T22:27:49.292Z,1.50
2019-05-15T22:30:19.751Z,1.37
2019-05-15T22:32:49.389Z,1.30
2019-05-15T22:35:19.375Z,1.20
2019-05-15T22:37:49.223Z,1.50
2019-05-15T22:40:18.802Z,1.20
2019-05-15T22:45:18.526Z,1.60
2019-05-15T22:47:48.456Z,1.30
2019-05-15T22:50:19.084Z,1.17
2019-05-15T22:52:49.394Z,1.50
2019-05-15T22:55:18.744Z,1.70
2019-05-15T23:00:18.893Z,1.37
2019-05-15T23:02:48.764Z,1.20
2019-05-15T23:05:27.822Z,1.25
2019-05-15T23:07:49.225Z,1.62
2019-05-15T23:12:46.052Z,1.40
2019-05-15T23:17:42.428Z,1.60
2019-05-15T23:20:12.326Z,1.07
2019-05-15T23:22:41.183Z,1.20
2019-05-15T23:25:10.696Z,1.05
2019-05-15T23:27:39.788Z,1.37
2019-05-15T23:30:09.205Z,1.37
2019-05-15T23:32:39.336Z,1.40
2019-05-15T23:35:08.610Z,1.30
2019-05-15T23:37:39.181Z,1.40
2019-05-15T23:40:09.151Z,1.32
2019-05-15T23:42:39.277Z,1.00
2019-05-15T23:45:09.062Z,1.30
2019-05-15T23:47:38.614Z,1.45
2019-05-15T23:50:08.148Z,1.32
2019-05-15T23:52:38.504Z,1.30
2019-05-15T23:55:08.619Z,1.50
2019-05-15T23:57:39.301Z,1.30
